Time;durP1;ratioP1;P1;durP2;ratioP2;P2;SDS_P1;SDS_P2;PMS_P1;PMS_P2;Temp;Humidity;BMP_temperature;BMP_pressure;BME280_temperature;BME280_humidity;BME280_pressure;Samples;Min_cycle;Max_cycle;Signal;HPM_P1;HPM_P2
2021/12/24 00:01:08;;;;;;;12.60;3.67;;;;;;;25.26;31.76;95943.97;4967001;28;20796;-32
2021/12/24 00:03:33;;;;;;;9.02;3.60;;;;;;;25.26;31.94;95950.09;4982306;28;20412;-29
2021/12/24 00:05:59;;;;;;;10.93;3.65;;;;;;;25.25;31.75;95940.50;4982449;28;20030;-29
2021/12/24 00:08:24;;;;;;;8.35;3.28;;;;;;;25.25;31.74;95922.16;4957054;28;20063;-30
2021/12/24 00:10:58;;;;;;;8.70;3.35;;;;;;;25.26;31.91;95923.84;4982709;28;20026;-29
2021/12/24 00:13:24;;;;;;;9.57;3.40;;;;;;;25.25;31.86;95930.03;4981622;28;20561;-31
2021/12/24 00:37:10;;;;;;;10.23;3.13;;;;;;;25.24;31.96;95909.16;4966610;28;20040;-30
2021/12/24 00:39:43;;;;;;;7.15;2.80;;;;;;;25.24;31.85;95903.94;4965132;28;20057;-37
2021/12/24 00:42:09;;;;;;;6.05;2.72;;;;;;;25.24;31.97;95904.75;4989510;28;20084;-31
2021/12/24 00:44:34;;;;;;;9.20;3.00;;;;;;;25.23;31.77;95896.97;4965716;28;20049;-29
2021/12/24 00:47:01;;;;;;;9.00;3.08;;;;;;;25.24;31.88;95899.50;4983334;28;20432;-33
2021/12/24 00:49:26;;;;;;;6.50;2.70;;;;;;;25.23;31.89;95892.59;4979976;28;20459;-31
2021/12/24 00:52:07;;;;;;;7.80;2.83;;;;;;;25.25;31.82;95884.63;4972768;28;20037;-31
2021/12/24 00:57:20;;;;;;;6.00;2.60;;;;;;;25.24;31.85;95886.38;4980612;28;20045;-30
2021/12/24 00:59:45;;;;;;;5.18;2.70;;;;;;;25.25;31.96;95874.13;4965110;28;20420;-28
2021/12/24 01:02:10;;;;;;;6.68;2.78;;;;;;;25.24;31.97;95877.72;4981852;28;20056;-29
2021/12/24 01:04:36;;;;;;;5.55;2.55;;;;;;;25.24;31.89;95873.28;4980675;28;20034;-29
2021/12/24 01:07:01;;;;;;;6.55;2.70;;;;;;;25.18;31.94;95860.59;4980384;28;20041;-32
2021/12/24 01:09:27;;;;;;;5.95;2.70;;;;;;;25.24;31.93;95868.03;4951595;28;20293;-32
2021/12/24 01:11:52;;;;;;;8.80;2.70;;;;;;;25.20;31.96;95868.34;4982886;28;20430;-29
2021/12/24 01:14:20;;;;;;;8.23;2.78;;;;;;;25.24;31.78;95878.53;4980171;28;20034;-30
2021/12/24 01:16:55;;;;;;;5.45;2.20;;;;;;;25.25;31.77;95884.63;4979528;28;20034;-27
2021/12/24 01:19:24;;;;;;;4.57;2.40;;;;;;;25.24;31.87;95881.16;4982145;28;20030;-29
2021/12/24 01:24:32;;;;;;;6.70;2.85;;;;;;;25.24;31.85;95894.25;4965929;28;20033;-31
2021/12/24 01:27:09;;;;;;;7.38;2.20;;;;;;;25.25;31.97;95889.88;4982777;28;20034;-29
2021/12/24 01:40:38;;;;;;;4.00;2.10;;;;;;;25.22;31.75;95880.41;4979765;28;20080;-31
2021/12/24 01:43:04;;;;;;;5.93;2.13;;;;;;;25.24;31.78;95880.31;4980516;28;20036;-33
2021/12/24 01:45:34;;;;;;;5.25;2.20;;;;;;;25.24;31.71;95878.53;4980263;28;20029;-29
2021/12/24 01:48:08;;;;;;;4.32;2.10;;;;;;;25.24;31.63;95872.47;4964342;28;20121;-30
2021/12/24 01:50:34;;;;;;;4.38;1.90;;;;;;;25.23;31.73;95861.13;4986685;28;20512;-33
2021/12/24 01:53:01;;;;;;;5.88;1.95;;;;;;;25.23;31.81;95862.88;4983923;28;20038;-30
2021/12/24 01:55:27;;;;;;;4.97;2.10;;;;;;;25.23;31.77;95858.50;4979771;28;20037;-28
2021/12/24 01:57:52;;;;;;;3.75;1.80;;;;;;;25.23;31.76;95861.13;4979933;28;20548;-28
2021/12/24 02:00:20;;;;;;;5.38;2.00;;;;;;;25.23;31.77;95855.88;4980532;28;20038;-31
2021/12/24 02:02:45;;;;;;;3.88;1.75;;;;;;;25.22;31.72;95864.69;4965503;28;20536;-30
2021/12/24 02:05:11;;;;;;;4.15;1.88;;;;;;;25.22;31.89;95863.84;4982810;28;20037;-31
2021/12/24 02:07:36;;;;;;;4.72;1.95;;;;;;;25.22;31.58;95862.06;4948333;28;21070;-32
2021/12/24 02:10:07;;;;;;;3.38;2.00;;;;;;;25.22;31.76;95859.44;4982736;28;20091;-31
2021/12/24 02:12:34;;;;;;;3.55;1.83;;;;;;;25.23;31.68;95855.03;4982537;28;20090;-32
2021/12/24 02:15:01;;;;;;;4.70;2.00;;;;;;;25.23;31.67;95852.41;4964067;28;20117;-33
2021/12/24 02:28:39;;;;;;;2.45;1.42;;;;;;;25.19;31.78;95838.66;4988324;28;20083;-31
2021/12/24 02:31:09;;;;;;;3.45;1.80;;;;;;;25.21;31.77;95849.06;4981222;28;20040;-28
2021/12/24 02:33:35;;;;;;;5.95;1.63;;;;;;;25.20;31.68;95844.75;4980271;28;20034;-31
2021/12/24 02:36:00;;;;;;;3.70;1.58;;;;;;;25.19;31.83;95838.66;4981933;28;20466;-29
2021/12/24 02:38:26;;;;;;;3.35;1.48;;;;;;;25.20;31.91;95836.91;4963903;28;20046;-29
2021/12/24 02:40:51;;;;;;;3.85;1.90;;;;;;;25.19;31.77;95825.56;4981577;28;20021;-31
2021/12/24 02:43:20;;;;;;;3.42;1.67;;;;;;;25.20;31.84;95823.78;4964638;28;20551;-30
2021/12/24 02:45:47;;;;;;;3.05;1.42;;;;;;;25.18;31.68;95822.09;4991365;28;20520;-32
2021/12/24 02:48:55;;;;;;;3.85;1.58;;;;;;;25.20;31.68;95816.75;4965433;28;20034;-30
2021/12/24 02:54:00;;;;;;;2.92;1.52;;;;;;;25.20;31.75;95811.50;4984229;28;20072;-34
2021/12/24 02:56:35;;;;;;;2.67;1.52;;;;;;;25.20;31.75;95808.06;4983866;28;20033;-32
2021/12/24 02:59:02;;;;;;;3.53;1.63;;;;;;;25.19;31.78;95807.19;4968981;28;20639;-30
2021/12/24 03:01:31;;;;;;;3.92;1.63;;;;;;;25.18;31.70;95805.53;4983435;28;20036;-30
2021/12/24 03:03:57;;;;;;;4.13;1.60;;;;;;;25.19;31.82;95807.19;4986020;28;20113;-31
2021/12/24 03:06:25;;;;;;;4.05;1.95;;;;;;;25.19;31.85;95807.19;4966872;28;20037;-28
2021/12/24 03:08:50;;;;;;;4.55;1.45;;;;;;;25.20;31.83;95810.69;4970552;28;20025;-30
2021/12/24 03:11:16;;;;;;;5.25;1.52;;;;;;;25.19;31.88;95812.44;4979724;28;20516;-28
2021/12/24 03:13:41;;;;;;;3.00;1.48;;;;;;;25.18;31.67;95800.28;4983704;28;20026;-32
2021/12/24 03:16:07;;;;;;;5.10;1.60;;;;;;;25.19;31.81;95799.34;4966044;28;20030;-30
2021/12/24 03:18:35;;;;;;;2.67;1.40;;;;;;;25.18;31.65;95789.78;4984845;28;20112;-31
2021/12/24 03:21:28;;;;;;;3.00;1.52;;;;;;;25.18;31.82;95795.88;4985626;28;20064;-33
2021/12/24 03:26:27;;;;;;;2.40;1.10;;;;;;;25.20;31.75;95797.56;4983304;28;20377;-32
2021/12/24 03:28:53;;;;;;;2.58;1.40;;;;;;;25.20;31.76;95787.06;4979752;28;20045;-32
2021/12/24 03:31:18;;;;;;;2.35;1.40;;;;;;;25.18;31.75;95779.31;4945817;28;20062;-32
2021/12/24 03:33:44;;;;;;;2.20;1.25;;;;;;;25.19;31.68;95788.84;4952537;28;20560;-30
2021/12/24 03:36:09;;;;;;;4.90;1.50;;;;;;;25.19;31.63;95780.97;4982294;28;20034;-30
2021/12/24 03:38:35;;;;;;;2.17;1.10;;;;;;;25.19;31.85;95775.75;4983792;28;20041;-31
2021/12/24 03:41:00;;;;;;;2.15;1.10;;;;;;;25.19;31.65;95786.22;4982834;28;21765;-29
2021/12/24 03:43:25;;;;;;;1.95;1.30;;;;;;;25.19;32.00;95786.22;4982264;28;20781;-28
2021/12/24 03:48:22;;;;;;;3.47;1.33;;;;;;;25.18;31.64;95789.78;4966970;28;20057;-29
2021/12/24 03:50:59;;;;;;;2.20;1.20;;;;;;;25.19;31.70;95775.75;4982283;28;20018;-32
2021/12/24 03:56:08;;;;;;;1.98;1.02;;;;;;;25.18;31.76;95767.03;4981510;28;20519;-32
2021/12/24 03:58:34;;;;;;;2.63;1.27;;;;;;;25.18;31.87;95774.88;4982687;28;20029;-30
2021/12/24 04:00:59;;;;;;;1.83;0.98;;;;;;;25.17;31.76;95767.16;4982186;28;20038;-29
2021/12/24 04:03:25;;;;;;;2.13;0.90;;;;;;;25.18;31.92;95763.59;4982607;28;20026;-34
2021/12/24 04:05:50;;;;;;;2.17;0.95;;;;;;;25.18;31.74;95767.03;4983223;28;20574;-32
2021/12/24 04:08:15;;;;;;;3.20;0.90;;;;;;;25.13;31.77;95757.81;4983223;28;20447;-30
2021/12/24 04:10:41;;;;;;;1.75;1.05;;;;;;;25.18;31.81;95759.16;4966281;28;20041;-30
2021/12/24 04:13:07;;;;;;;2.63;1.05;;;;;;;25.16;31.69;95765.44;4966119;28;20042;-32
2021/12/24 04:15:34;;;;;;;3.35;1.45;;;;;;;25.18;31.75;95763.59;4985568;28;20034;-30
2021/12/24 04:17:59;;;;;;;1.85;0.93;;;;;;;25.18;31.69;95755.72;4985918;28;20033;-32
2021/12/24 04:25:53;;;;;;;2.55;1.10;;;;;;;25.17;31.82;95751.41;4987390;28;20092;-31
2021/12/24 04:28:19;;;;;;;1.85;1.15;;;;;;;25.17;31.68;95751.41;4965185;28;20648;-30
2021/12/24 04:30:49;;;;;;;0.93;0.82;;;;;;;25.17;31.82;95746.19;4981847;28;20030;-32
2021/12/24 04:33:24;;;;;;;1.95;0.88;;;;;;;25.16;31.93;95755.81;4966390;28;20026;-27
2021/12/24 04:36:17;;;;;;;2.25;1.20;;;;;;;25.16;31.74;95755.81;4982428;28;20097;-30
2021/12/24 04:52:07;;;;;;;2.38;0.82;;;;;;;25.17;31.76;95760.09;4984028;28;20044;-31
2021/12/24 05:02:54;;;;;;;1.92;0.88;;;;;;;25.16;31.78;95749.72;4982418;28;20064;-31
2021/12/24 05:06:06;;;;;;;1.00;0.90;;;;;;;25.16;31.74;95745.31;4982075;28;20664;-29
2021/12/24 05:08:28;;;;;;;2.00;0.93;;;;;;;25.15;31.89;95742.81;4965087;28;20472;-34
2021/12/24 05:10:53;;;;;;;;;;;;;;;25.16;31.63;95739.22;4988911;28;20104;-30
2021/12/24 05:13:21;;;;;;;2.72;1.05;;;;;;;25.16;31.76;95728.75;4990394;28;19917;-31
2021/12/24 05:15:50;;;;;;;1.17;0.90;;;;;;;25.15;31.90;95727.06;4989282;28;20693;-32
2021/12/24 05:18:30;;;;;;;1.10;0.77;;;;;;;25.14;31.70;95738.50;4990662;28;20022;-32
2021/12/24 05:23:40;;;;;;;1.77;0.80;;;;;;;25.14;31.93;95730.66;4970992;28;20037;-28
2021/12/24 05:26:05;;;;;;;2.50;0.90;;;;;;;25.14;31.69;95739.31;4980979;28;20121;-31
2021/12/24 05:28:31;;;;;;;1.60;0.93;;;;;;;25.14;31.72;95735.88;4960886;28;20041;-30
2021/12/24 05:30:56;;;;;;;1.08;0.85;;;;;;;25.13;31.95;95735.03;4968148;28;20030;-29
2021/12/24 05:33:22;;;;;;;1.35;0.70;;;;;;;25.14;31.78;95726.22;4965174;28;20301;-31
2021/12/24 05:35:47;;;;;;;2.20;0.90;;;;;;;25.14;31.77;95725.41;4979793;28;20083;-28
2021/12/24 05:38:13;;;;;;;3.42;1.10;;;;;;;25.14;31.79;95714.91;4983379;28;20080;-28
2021/12/24 05:40:39;;;;;;;1.75;0.95;;;;;;;25.15;31.88;95716.59;4979151;28;20033;-26
2021/12/24 05:43:04;;;;;;;1.30;0.80;;;;;;;25.14;31.66;95720.16;4979402;28;20507;-26
2021/12/24 05:45:30;;;;;;;2.22;0.93;;;;;;;25.14;31.80;95725.41;4981611;28;20064;-28
2021/12/24 05:47:55;;;;;;;1.50;0.90;;;;;;;25.14;31.67;95726.22;4964012;28;20034;-30
2021/12/24 05:50:20;;;;;;;2.72;0.98;;;;;;;25.15;31.83;95737.56;4984213;28;20044;-32
2021/12/24 05:52:46;;;;;;;1.38;0.75;;;;;;;25.16;31.79;95744.47;4982583;28;20412;-32
2021/12/24 05:55:11;;;;;;;1.48;0.70;;;;;;;25.14;31.85;95735.88;4982416;28;20034;-29
2021/12/24 05:57:37;;;;;;;1.20;0.70;;;;;;;25.15;31.83;95737.56;4980320;28;20030;-29
2021/12/24 06:00:07;;;;;;;2.42;0.68;;;;;;;25.15;31.85;95737.56;4980492;28;20042;-29
2021/12/24 06:02:33;;;;;;;0.95;0.77;;;;;;;25.15;31.76;95748.03;4981520;28;20022;-28
2021/12/24 06:04:58;;;;;;;2.10;0.77;;;;;;;25.15;31.87;95745.44;4982207;28;20520;-29
2021/12/24 06:07:24;;;;;;;1.77;0.75;;;;;;;25.15;31.88;95741.03;4984703;28;20103;-29
2021/12/24 06:09:49;;;;;;;0.82;0.70;;;;;;;25.11;31.77;95746.56;4981429;28;20030;-28
2021/12/24 06:12:14;;;;;;;1.23;0.70;;;;;;;25.16;31.79;95763.69;4981713;28;21096;-30
2021/12/24 06:14:41;;;;;;;1.30;0.80;;;;;;;25.17;31.77;95761.91;4982825;28;20034;-28
2021/12/24 06:17:14;;;;;;;0.63;0.63;;;;;;;25.17;31.88;95761.91;4985391;28;20022;-29
2021/12/24 06:19:39;;;;;;;2.42;0.95;;;;;;;25.17;31.78;95772.41;4986713;28;20573;-29
2021/12/24 06:22:04;;;;;;;0.68;0.60;;;;;;;25.17;31.76;95761.91;4985334;28;20061;-29
2021/12/24 06:24:30;;;;;;;0.90;0.60;;;;;;;25.17;31.91;95761.91;4983409;28;20034;-27
2021/12/24 06:26:55;;;;;;;4.53;1.08;;;;;;;25.16;31.80;95771.53;4989453;28;20033;-29
2021/12/24 06:29:21;;;;;;;4.45;1.60;;;;;;;25.17;31.79;95777.63;4974625;28;20092;-30
2021/12/24 06:31:46;;;;;;;3.28;1.15;;;;;;;25.15;31.78;95779.50;4966749;28;20049;-29
2021/12/24 06:34:12;;;;;;;0.80;0.80;;;;;;;25.14;31.87;95785.69;4952134;28;20034;-26
2021/12/24 06:36:41;;;;;;;1.02;0.75;;;;;;;25.14;31.70;95788.31;4985203;28;20107;-29
2021/12/24 06:39:06;;;;;;;1.17;0.75;;;;;;;25.13;31.91;95791.88;4984080;28;20045;-29
2021/12/24 06:41:31;;;;;;;1.27;0.82;;;;;;;25.13;31.86;95778.78;4983465;28;20030;-28
2021/12/24 06:43:57;;;;;;;1.67;0.95;;;;;;;25.14;31.88;95772.59;4980293;28;20041;-27
2021/12/24 06:46:22;;;;;;;1.63;0.93;;;;;;;25.13;32.00;95781.41;4985644;28;20068;-28
2021/12/24 06:48:53;;;;;;;1.23;0.77;;;;;;;25.15;32.00;95782.13;4984452;28;20026;-32
2021/12/24 06:51:19;;;;;;;1.25;0.65;;;;;;;25.14;31.83;95777.84;4966651;28;20037;-30
2021/12/24 06:53:44;;;;;;;2.28;0.65;;;;;;;25.15;31.84;95776.88;4966417;28;22682;-29
2021/12/24 06:56:10;;;;;;;1.52;0.70;;;;;;;25.15;31.97;95763.78;4983329;28;20030;-28
2021/12/24 06:58:35;;;;;;;1.52;0.70;;;;;;;25.15;31.83;95769.03;4983468;28;20041;-29
2021/12/24 07:01:01;;;;;;;0.75;0.60;;;;;;;25.15;32.00;95771.63;4983076;28;20069;-31
2021/12/24 07:03:26;;;;;;;0.68;0.60;;;;;;;25.15;31.96;95774.25;4974970;28;20034;-29
2021/12/24 07:05:51;;;;;;;0.73;0.52;;;;;;;25.16;31.72;95773.31;4984740;28;20766;-29
2021/12/24 07:08:17;;;;;;;1.10;0.85;;;;;;;25.17;31.82;95775.00;4968705;28;20555;-30
2021/12/24 07:10:42;;;;;;;1.52;0.88;;;;;;;25.17;31.93;95778.47;4985587;28;20664;-29
2021/12/24 07:13:08;;;;;;;1.50;0.65;;;;;;;25.17;31.69;95788.13;4983772;28;20062;-31
2021/12/24 07:15:33;;;;;;;1.85;0.50;;;;;;;25.16;31.88;95787.28;4982434;28;20034;-28
2021/12/24 07:17:58;;;;;;;1.15;0.70;;;;;;;25.17;31.91;95788.13;4967771;28;20433;-30
2021/12/24 07:20:24;;;;;;;2.05;0.73;;;;;;;25.17;31.89;95788.13;4983149;28;20034;-28
2021/12/24 07:22:49;;;;;;;1.00;0.70;;;;;;;25.18;32.04;95782.75;4982188;28;20123;-31
2021/12/24 07:25:15;;;;;;;0.95;0.70;;;;;;;25.18;31.92;95779.31;4983188;28;20037;-31
2021/12/24 07:27:40;;;;;;;2.58;0.57;;;;;;;25.18;31.80;95774.06;4983291;28;20022;-26
2021/12/24 07:30:08;;;;;;;0.80;0.73;;;;;;;25.18;31.71;95779.31;4964655;28;20052;-28
2021/12/24 07:32:34;;;;;;;2.00;0.60;;;;;;;25.17;31.75;95765.34;4966880;28;20029;-27
2021/12/24 07:34:59;;;;;;;3.00;1.10;;;;;;;25.18;31.83;95769.66;4982600;28;20037;-28
2021/12/24 07:37:25;;;;;;;5.07;1.88;;;;;;;25.18;31.74;95772.25;4967599;28;20026;-27
2021/12/24 07:39:50;;;;;;;6.63;1.90;;;;;;;25.18;31.92;95768.81;4981680;28;20638;-27
2021/12/24 07:42:15;;;;;;;6.07;2.55;;;;;;;25.16;31.87;95763.69;4983629;28;20038;-27
2021/12/24 07:44:41;;;;;;;5.45;2.17;;;;;;;25.18;31.46;95769.66;4966411;28;20030;-28
2021/12/24 07:47:15;;;;;;;6.30;2.30;;;;;;;25.17;31.55;95761.91;4982401;28;20424;-28
2021/12/24 07:49:42;;;;;;;11.52;3.13;;;;;;;25.17;31.75;95740.94;4972043;28;20133;-31
2021/12/24 07:54:33;;;;;;;7.75;2.95;;;;;;;25.17;31.86;95743.56;4979542;28;20038;-28
2021/12/24 07:56:59;;;;;;;13.77;2.95;;;;;;;25.17;31.83;95757.47;4964738;28;20034;-30
2021/12/24 07:59:26;;;;;;;7.47;2.88;;;;;;;25.17;31.41;95741.75;4983065;28;20034;-31
2021/12/24 08:01:52;;;;;;;13.18;2.83;;;;;;;25.17;31.17;95740.94;4981065;28;20022;-29
2021/12/24 08:04:18;;;;;;;7.32;2.20;;;;;;;25.15;31.04;95748.03;4967321;28;20692;-30
2021/12/24 08:06:43;;;;;;;5.72;2.30;;;;;;;25.11;30.66;95754.44;4980547;28;20022;-28
2021/12/24 08:09:09;;;;;;;5.30;2.28;;;;;;;25.10;30.56;95750.13;4949276;28;20037;-31
2021/12/24 08:11:35;;;;;;;7.18;2.38;;;;;;;25.07;30.46;95756.44;4974527;28;20480;-26
2021/12/24 08:14:03;;;;;;;5.97;2.45;;;;;;;25.04;30.24;95754.00;4976760;28;20036;-29
2021/12/24 08:16:29;;;;;;;7.00;2.67;;;;;;;25.01;30.18;95757.66;4982854;28;20018;-30
2021/12/24 08:18:55;;;;;;;5.03;2.45;;;;;;;24.98;29.96;95757.88;4967596;28;20037;-30
2021/12/24 08:21:20;;;;;;;7.38;2.78;;;;;;;24.96;29.84;95762.38;4964189;28;20026;-34
2021/12/24 08:23:47;;;;;;;4.20;2.20;;;;;;;24.95;29.86;95763.34;4980569;28;20034;-27
2021/12/24 08:26:13;;;;;;;5.97;2.80;;;;;;;24.93;30.00;95759.97;4986150;28;20025;-30
2021/12/24 08:28:38;;;;;;;4.20;2.30;;;;;;;24.91;30.01;95762.66;4985050;28;20103;-27
2021/12/24 08:31:04;;;;;;;4.50;2.22;;;;;;;24.90;30.02;95760.19;4981457;28;20520;-28
2021/12/24 08:33:29;;;;;;;5.43;2.50;;;;;;;24.88;29.93;95762.03;4985259;28;20823;-29
2021/12/24 08:35:55;;;;;;;4.50;2.17;;;;;;;24.87;29.84;95766.44;4981613;28;20053;-28
2021/12/24 08:38:21;;;;;;;6.10;2.22;;;;;;;24.85;29.88;95759.63;4981744;28;20034;-29
2021/12/24 08:40:46;;;;;;;4.38;2.05;;;;;;;24.84;30.43;95764.03;4982741;28;20038;-30
2021/12/24 08:43:12;;;;;;;9.85;2.20;;;;;;;24.85;30.72;95763.09;4988370;28;20338;-33
2021/12/24 08:45:37;;;;;;;5.07;2.05;;;;;;;24.85;30.91;95767.47;4980689;28;20022;-28
2021/12/24 08:48:03;;;;;;;4.72;2.20;;;;;;;24.86;31.04;95764.75;4979578;28;20029;-32
2021/12/24 08:50:28;;;;;;;8.60;2.10;;;;;;;24.89;31.17;95768.97;4983886;28;20065;-31
2021/12/24 08:52:53;;;;;;;4.25;2.05;;;;;;;24.90;31.21;95774.09;4982603;28;20705;-29
2021/12/24 08:55:19;;;;;;;5.50;2.38;;;;;;;24.92;31.25;95768.75;4980125;28;20046;-31
2021/12/24 08:57:44;;;;;;;4.93;2.20;;;;;;;24.95;31.28;95760.72;4980890;28;20034;-30
2021/12/24 09:00:11;;;;;;;5.03;1.98;;;;;;;24.96;31.58;95759.75;4980345;28;20049;-31
2021/12/24 09:02:37;;;;;;;4.32;2.20;;;;;;;24.99;31.34;95762.19;4982579;28;20141;-31
2021/12/24 09:05:04;;;;;;;5.57;2.45;;;;;;;25.01;31.63;95762.06;4983057;28;20033;-30
2021/12/24 09:07:30;;;;;;;4.70;2.35;;;;;;;25.03;31.35;95761.03;4982089;28;20053;-31
2021/12/24 09:09:55;;;;;;;4.82;1.90;;;;;;;25.03;31.55;95757.56;4981126;28;20116;-33
2021/12/24 09:12:20;;;;;;;5.50;1.90;;;;;;;25.05;31.63;95756.53;4953345;28;20739;-32
2021/12/24 09:14:46;;;;;;;4.00;1.80;;;;;;;25.08;31.57;95759.88;4977882;28;20034;-31
2021/12/24 09:17:11;;;;;;;4.00;1.85;;;;;;;25.09;31.48;95751.09;4975035;28;20108;-30
2021/12/24 09:19:44;;;;;;;6.18;2.13;;;;;;;25.10;31.58;95751.00;4979831;28;20033;-31
2021/12/24 09:22:15;;;;;;;4.15;1.88;;;;;;;25.12;31.59;95753.47;4981678;28;20759;-26
2021/12/24 09:24:42;;;;;;;3.83;1.88;;;;;;;25.13;31.57;95755.19;4976996;28;20030;-29
2021/12/24 09:27:07;;;;;;;3.95;1.98;;;;;;;25.15;31.60;95769.03;4980706;28;20041;-28
2021/12/24 09:29:33;;;;;;;3.72;1.85;;;;;;;25.15;31.59;95769.03;4982598;28;20036;-28
2021/12/24 09:31:58;;;;;;;3.45;1.60;;;;;;;25.16;31.66;95760.19;4981918;28;20369;-28
2021/12/24 09:34:23;;;;;;;6.85;2.00;;;;;;;25.16;31.60;95755.81;4980003;28;20519;-29
2021/12/24 09:36:49;;;;;;;6.50;1.80;;;;;;;25.16;31.60;95749.72;4980132;28;20038;-27
2021/12/24 09:39:14;;;;;;;6.35;1.85;;;;;;;25.17;31.63;95752.25;4965054;28;20100;-30
2021/12/24 09:41:40;;;;;;;4.80;1.90;;;;;;;25.17;31.80;95744.38;4979682;28;20333;-31
2021/12/24 09:44:05;;;;;;;4.20;1.70;;;;;;;25.18;31.78;95753.91;4981491;28;20037;-27
2021/12/24 09:46:31;;;;;;;4.55;1.80;;;;;;;25.19;31.67;95746.91;4979430;28;20029;-27
2021/12/24 09:48:57;;;;;;;8.43;2.00;;;;;;;25.19;31.63;95744.28;4980776;28;20164;-28
2021/12/24 09:51:25;;;;;;;3.38;1.58;;;;;;;25.20;31.73;95745.13;4982062;28;20032;-27
2021/12/24 09:53:50;;;;;;;8.77;1.85;;;;;;;25.19;31.82;95741.66;4982545;28;20037;-29
2021/12/24 09:56:16;;;;;;;6.70;1.73;;;;;;;25.19;31.59;95733.78;4975731;28;20029;-31
2021/12/24 09:58:41;;;;;;;8.25;1.50;;;;;;;25.20;31.81;95729.41;4967515;28;20030;-27
2021/12/24 10:01:07;;;;;;;5.82;1.65;;;;;;;25.21;31.90;95731.06;4992834;28;20027;-29
2021/12/24 10:03:36;;;;;;;5.43;1.52;;;;;;;25.21;31.86;95726.69;4990704;28;20389;-27
2021/12/24 10:06:03;;;;;;;4.47;1.77;;;;;;;25.21;31.90;95729.31;4985359;28;20504;-31
2021/12/24 10:08:28;;;;;;;4.13;1.75;;;;;;;25.22;31.73;95725.72;4987775;28;20403;-31
2021/12/24 10:11:04;;;;;;;5.45;1.90;;;;;;;25.22;31.79;95725.72;4986691;28;20130;-28
2021/12/24 10:13:43;;;;;;;4.53;1.80;;;;;;;25.24;31.71;95726.44;4966103;28;20042;-28
2021/12/24 10:16:12;;;;;;;15.80;2.28;;;;;;;25.24;31.70;95726.44;4990279;28;20022;-28
2021/12/24 10:18:48;;;;;;;9.93;3.80;;;;;;;25.16;29.79;95724.34;4970841;28;21237;-27
2021/12/24 10:21:14;;;;;;;7.72;4.25;;;;;;;25.02;28.83;95720.03;4984659;28;20026;-29
2021/12/24 10:23:48;;;;;;;10.52;5.32;;;;;;;24.88;28.65;95726.22;4955747;28;20369;-28
2021/12/24 10:26:25;;;;;;;6.70;3.78;;;;;;;24.71;28.40;95726.44;4989284;28;20053;-30
2021/12/24 10:29:03;;;;;;;9.48;3.33;;;;;;;24.55;28.88;95729.22;4989736;28;20531;-30
2021/12/24 10:31:36;;;;;;;5.95;3.47;;;;;;;24.46;29.19;95728.88;4984061;28;20026;-30
2021/12/24 10:34:23;;;;;;;5.32;3.20;;;;;;;24.42;29.72;95709.06;4984973;28;20032;-28
2021/12/24 10:37:04;;;;;;;4.95;2.97;;;;;;;24.40;29.84;95705.69;4985106;28;20033;-31
2021/12/24 10:39:35;;;;;;;6.78;3.30;;;;;;;24.41;30.13;95704.78;4985174;28;20034;-28
2021/12/24 10:42:06;;;;;;;7.00;3.30;;;;;;;24.43;30.14;95710.75;4983204;28;20149;-27
2021/12/24 10:44:33;;;;;;;9.07;3.10;;;;;;;24.46;30.27;95704.47;4990842;28;20049;-31
2021/12/24 10:47:06;;;;;;;6.93;2.80;;;;;;;24.48;30.56;95703.41;4991458;28;20231;-31
2021/12/24 10:54:59;;;;;;;4.93;2.85;;;;;;;24.60;30.58;95686.06;4985168;28;20033;-29
2021/12/24 10:57:30;;;;;;;5.18;2.90;;;;;;;24.63;30.69;95690.25;4985622;28;20029;-28
2021/12/24 11:00:06;;;;;;;6.80;2.50;;;;;;;24.64;30.61;95686.72;4965647;28;20104;-28
2021/12/24 11:02:33;;;;;;;4.47;2.50;;;;;;;24.68;30.69;95682.97;4966551;28;20026;-30
2021/12/24 11:04:59;;;;;;;6.30;2.70;;;;;;;24.70;30.70;95683.69;4984653;28;20030;-31
2021/12/24 11:07:38;;;;;;;5.47;2.42;;;;;;;24.73;30.64;95680.88;4975259;28;20037;-28
2021/12/24 11:10:19;;;;;;;6.57;2.70;;;;;;;24.75;30.74;95678.16;4985255;28;20959;-28
2021/12/24 11:13:08;;;;;;;11.63;2.70;;;;;;;24.78;30.65;95691.88;4967176;28;20018;-29
2021/12/24 11:15:39;;;;;;;5.18;2.40;;;;;;;24.82;30.75;95683.81;4983291;28;20025;-33
2021/12/24 11:18:06;;;;;;;9.27;2.78;;;;;;;24.82;30.63;95683.81;4983198;28;20113;-31
2021/12/24 11:20:32;;;;;;;10.57;2.53;;;;;;;24.83;30.73;95680.25;4962106;28;20072;-31
2021/12/24 11:23:08;;;;;;;4.82;2.30;;;;;;;24.85;30.99;95667.91;4980526;28;20219;-29
2021/12/24 11:25:39;;;;;;;4.38;2.25;;;;;;;24.86;30.97;95667.81;4982355;28;20040;-30
2021/12/24 11:28:05;;;;;;;4.90;2.30;;;;;;;24.88;30.93;95672.94;4982999;28;20136;-29
2021/12/24 11:30:31;;;;;;;12.52;2.47;;;;;;;24.89;30.91;95674.63;4982397;28;20748;-31
2021/12/24 11:32:57;;;;;;;4.30;2.17;;;;;;;24.91;30.97;95678.00;4984342;28;20171;-30
2021/12/24 11:35:22;;;;;;;15.48;3.40;;;;;;;24.92;30.88;95664.78;4982015;28;20026;-29
2021/12/24 11:37:48;;;;;;;40.22;7.03;;;;;;;24.95;31.06;95668.13;4984290;28;20084;-28
2021/12/24 11:40:15;;;;;;;43.97;8.27;;;;;;;24.96;31.05;95660.16;4979585;28;20116;-31
2021/12/24 11:42:46;;;;;;;32.47;7.35;;;;;;;24.97;30.96;95661.84;4982580;28;20106;-29
2021/12/24 11:45:11;;;;;;;46.05;7.60;;;;;;;24.98;31.16;95660.88;4965796;28;20103;-29
2021/12/24 11:47:37;;;;;;;34.42;7.63;;;;;;;25.01;30.98;95667.69;4952729;28;21786;-31
2021/12/24 11:50:03;;;;;;;37.38;7.78;;;;;;;25.03;30.96;95666.69;4985069;28;20064;-33
2021/12/24 11:52:28;;;;;;;27.90;7.13;;;;;;;25.05;31.27;95672.66;4986952;28;20539;-31
2021/12/24 11:54:57;;;;;;;25.40;6.07;;;;;;;25.07;31.32;95666.47;4969654;28;20045;-29
2021/12/24 11:57:23;;;;;;;22.77;5.97;;;;;;;25.09;31.16;95660.16;4968596;28;20049;-28
2021/12/24 11:59:49;;;;;;;20.10;6.13;;;;;;;25.10;31.11;95656.63;4984005;28;20111;-33
2021/12/24 12:02:40;;;;;;;22.90;5.78;;;;;;;25.12;31.11;95654.72;4985557;28;20026;-32
2021/12/24 12:05:29;;;;;;;14.68;4.75;;;;;;;25.14;31.26;95646.75;4967673;28;20038;-31
2021/12/24 12:08:25;;;;;;;17.08;5.13;;;;;;;25.15;31.34;95653.66;4967104;28;20141;-30
2021/12/24 12:10:54;;;;;;;14.48;4.22;;;;;;;25.15;31.30;95653.66;4984181;28;20397;-31
2021/12/24 12:13:36;;;;;;;14.43;4.28;;;;;;;25.16;31.19;95647.47;4970563;28;20037;-29
2021/12/24 12:16:02;;;;;;;14.95;4.70;;;;;;;25.15;31.20;95636.16;4973340;28;20080;-30
2021/12/24 12:18:33;;;;;;;14.95;4.60;;;;;;;25.16;31.40;95637.84;4988579;28;20512;-29
2021/12/24 12:21:09;;;;;;;15.57;4.07;;;;;;;25.15;31.32;95628.31;4977196;28;20030;-29
2021/12/24 12:24:57;;;;;;;14.77;4.15;;;;;;;25.16;31.22;95621.25;4989511;28;20037;-27
2021/12/24 12:26:34;;;;;;;10.45;4.20;;;;;;;25.16;31.36;95623.88;4969338;28;20057;-31
2021/12/24 12:29:37;;;;;;;14.02;4.13;;;;;;;25.16;31.30;95618.63;4990394;28;20038;-29
2021/12/24 12:32:17;;;;;;;13.25;4.20;;;;;;;25.17;31.41;95620.34;4991139;28;20105;-32
2021/12/24 12:34:42;;;;;;;14.82;4.03;;;;;;;25.17;31.49;95607.22;4986473;28;20045;-30
2021/12/24 12:37:19;;;;;;;9.60;3.47;;;;;;;25.18;31.46;95609.72;4987409;28;20058;-29
2021/12/24 12:39:45;;;;;;;11.82;3.42;;;;;;;25.19;31.47;95607.94;4977031;28;20195;-29
2021/12/24 12:42:14;;;;;;;11.50;3.40;;;;;;;25.21;31.41;95599.97;4988545;28;20026;-29
2021/12/24 12:44:42;;;;;;;9.68;3.90;;;;;;;25.20;31.38;95604.38;4987549;28;20401;-25
2021/12/24 12:47:11;;;;;;;10.85;3.80;;;;;;;25.23;31.43;95603.31;4975241;28;20056;-27
2021/12/24 12:49:36;;;;;;;9.23;3.35;;;;;;;25.22;31.49;95592.00;4988662;28;20030;-29
2021/12/24 12:52:07;;;;;;;10.68;3.55;;;;;;;25.23;31.38;95593.69;4988497;28;20081;-30
2021/12/24 12:54:36;;;;;;;12.07;3.25;;;;;;;25.25;31.40;95602.25;4988822;28;20083;-29
2021/12/24 12:57:18;;;;;;;12.07;3.97;;;;;;;25.24;31.49;95600.59;4986718;28;20038;-30
2021/12/24 13:00:17;;;;;;;8.13;2.95;;;;;;;25.25;31.54;95591.78;4986171;28;20026;-30
2021/12/24 13:03:15;;;;;;;10.77;3.20;;;;;;;25.26;31.53;95593.47;4987435;28;20058;-30
2021/12/24 13:05:41;;;;;;;5.95;2.42;;;;;;;25.26;31.61;95588.22;4987263;28;20041;-23
2021/12/24 13:08:17;;;;;;;6.90;2.97;;;;;;;25.26;31.40;95583.00;4988781;28;20030;-30
2021/12/24 13:11:03;;;;;;;8.27;2.90;;;;;;;25.27;31.59;95595.16;4987087;28;20148;-29
2021/12/24 13:13:30;;;;;;;9.23;2.95;;;;;;;25.29;31.38;95589.78;4970853;28;20579;-27
2021/12/24 13:15:56;;;;;;;9.52;3.10;;;;;;;25.29;31.53;95584.56;4984965;28;20041;-30